sensor_id;sensor_type;location;lat;lon;timestamp;P1;durP1;ratioP1;P2;durP2;ratioP2
67595;SDS011;54410;48.694;8.934;2023-06-10T00:00:38;4.20;;;3.80;;
67595;SDS011;54410;48.694;8.934;2023-06-10T00:03:06;4.97;;;4.25;;
67595;SDS011;54410;48.694;8.934;2023-06-10T00:05:32;5.40;;;4.20;;
67595;SDS011;54410;48.694;8.934;2023-06-10T00:07:59;5.07;;;4.40;;
67595;SDS011;54410;48.694;8.934;2023-06-10T00:10:31;5.65;;;4.35;;
67595;SDS011;54410;48.694;8.934;2023-06-10T00:13:01;4.63;;;3.50;;
67595;SDS011;54410;48.694;8.934;2023-06-10T00:15:27;4.70;;;4.20;;
67595;SDS011;54410;48.694;8.934;2023-06-10T00:17:53;4.13;;;3.78;;
67595;SDS011;54410;48.694;8.934;2023-06-10T00:20:20;3.78;;;3.42;;
67595;SDS011;54410;48.694;8.934;2023-06-10T00:22:48;4.20;;;3.80;;
67595;SDS011;54410;48.694;8.934;2023-06-10T00:25:14;4.35;;;3.85;;
67595;SDS011;54410;48.694;8.934;2023-06-10T00:27:40;4.85;;;4.00;;
67595;SDS011;54410;48.694;8.934;2023-06-10T00:30:06;5.05;;;4.18;;
67595;SDS011;54410;48.694;8.934;2023-06-10T00:32:33;4.03;;;3.60;;
67595;SDS011;54410;48.694;8.934;2023-06-10T00:34:59;5.00;;;4.50;;
67595;SDS011;54410;48.694;8.934;2023-06-10T00:37:25;5.45;;;4.70;;
67595;SDS011;54410;48.694;8.934;2023-06-10T00:39:51;4.25;;;3.85;;
67595;SDS011;54410;48.694;8.934;2023-06-10T00:42:17;5.40;;;4.68;;
67595;SDS011;54410;48.694;8.934;2023-06-10T00:44:44;3.90;;;3.55;;
67595;SDS011;54410;48.694;8.934;2023-06-10T00:47:10;5.10;;;4.55;;
67595;SDS011;54410;48.694;8.934;2023-06-10T00:49:36;4.28;;;3.65;;
67595;SDS011;54410;48.694;8.934;2023-06-10T00:52:02;5.43;;;4.45;;
67595;SDS011;54410;48.694;8.934;2023-06-10T00:54:29;3.88;;;3.47;;
67595;SDS011;54410;48.694;8.934;2023-06-10T00:56:55;6.47;;;4.32;;
67595;SDS011;54410;48.694;8.934;2023-06-10T00:59:22;5.07;;;4.10;;
67595;SDS011;54410;48.694;8.934;2023-06-10T01:01:50;6.25;;;4.57;;
67595;SDS011;54410;48.694;8.934;2023-06-10T01:04:17;4.60;;;4.03;;
67595;SDS011;54410;48.694;8.934;2023-06-10T01:06:51;5.22;;;4.65;;
67595;SDS011;54410;48.694;8.934;2023-06-10T01:09:19;4.65;;;4.00;;
67595;SDS011;54410;48.694;8.934;2023-06-10T01:11:47;6.22;;;5.10;;
67595;SDS011;54410;48.694;8.934;2023-06-10T01:14:15;4.43;;;3.63;;
67595;SDS011;54410;48.694;8.934;2023-06-10T01:16:42;5.38;;;4.47;;
67595;SDS011;54410;48.694;8.934;2023-06-10T01:19:11;4.25;;;3.58;;
67595;SDS011;54410;48.694;8.934;2023-06-10T01:21:38;5.03;;;4.30;;
67595;SDS011;54410;48.694;8.934;2023-06-10T01:24:04;5.13;;;3.85;;
67595;SDS011;54410;48.694;8.934;2023-06-10T01:26:33;6.15;;;4.90;;
67595;SDS011;54410;48.694;8.934;2023-06-10T01:29:03;3.88;;;3.47;;
67595;SDS011;54410;48.694;8.934;2023-06-10T01:34:10;5.40;;;4.28;;
67595;SDS011;54410;48.694;8.934;2023-06-10T01:36:36;4.90;;;4.40;;
67595;SDS011;54410;48.694;8.934;2023-06-10T01:39:04;4.78;;;4.15;;
67595;SDS011;54410;48.694;8.934;2023-06-10T01:41:30;6.32;;;5.38;;
67595;SDS011;54410;48.694;8.934;2023-06-10T01:43:57;4.55;;;4.03;;
67595;SDS011;54410;48.694;8.934;2023-06-10T01:46:23;6.82;;;4.70;;
67595;SDS011;54410;48.694;8.934;2023-06-10T01:48:49;5.00;;;4.35;;
67595;SDS011;54410;48.694;8.934;2023-06-10T01:51:15;5.53;;;4.65;;
67595;SDS011;54410;48.694;8.934;2023-06-10T01:53:40;4.93;;;3.97;;
67595;SDS011;54410;48.694;8.934;2023-06-10T01:56:06;5.47;;;4.50;;
67595;SDS011;54410;48.694;8.934;2023-06-10T01:58:32;4.38;;;3.97;;
67595;SDS011;54410;48.694;8.934;2023-06-10T02:00:58;5.85;;;4.82;;
67595;SDS011;54410;48.694;8.934;2023-06-10T02:03:24;6.25;;;5.13;;
67595;SDS011;54410;48.694;8.934;2023-06-10T02:05:49;5.15;;;4.20;;
67595;SDS011;54410;48.694;8.934;2023-06-10T02:08:15;5.82;;;5.10;;
67595;SDS011;54410;48.694;8.934;2023-06-10T02:10:41;5.15;;;4.45;;
67595;SDS011;54410;48.694;8.934;2023-06-10T02:13:07;5.72;;;4.47;;
67595;SDS011;54410;48.694;8.934;2023-06-10T02:15:33;5.30;;;4.60;;
67595;SDS011;54410;48.694;8.934;2023-06-10T02:18:00;5.25;;;3.95;;
67595;SDS011;54410;48.694;8.934;2023-06-10T02:20:26;5.40;;;4.90;;
67595;SDS011;54410;48.694;8.934;2023-06-10T02:22:52;7.00;;;5.22;;
67595;SDS011;54410;48.694;8.934;2023-06-10T02:25:18;6.72;;;4.82;;
67595;SDS011;54410;48.694;8.934;2023-06-10T02:27:44;5.28;;;4.50;;
67595;SDS011;54410;48.694;8.934;2023-06-10T02:30:10;4.95;;;4.40;;
67595;SDS011;54410;48.694;8.934;2023-06-10T02:32:36;5.85;;;4.78;;
67595;SDS011;54410;48.694;8.934;2023-06-10T02:35:02;5.03;;;4.43;;
67595;SDS011;54410;48.694;8.934;2023-06-10T02:37:28;5.95;;;5.35;;
67595;SDS011;54410;48.694;8.934;2023-06-10T02:39:54;5.63;;;4.35;;
67595;SDS011;54410;48.694;8.934;2023-06-10T02:42:20;5.97;;;4.88;;
67595;SDS011;54410;48.694;8.934;2023-06-10T02:44:46;5.50;;;4.90;;
67595;SDS011;54410;48.694;8.934;2023-06-10T02:47:12;4.50;;;4.03;;
67595;SDS011;54410;48.694;8.934;2023-06-10T02:49:38;6.20;;;5.22;;
67595;SDS011;54410;48.694;8.934;2023-06-10T02:52:05;4.57;;;4.18;;
67595;SDS011;54410;48.694;8.934;2023-06-10T02:54:32;5.65;;;5.05;;
67595;SDS011;54410;48.694;8.934;2023-06-10T02:56:57;5.28;;;4.30;;
67595;SDS011;54410;48.694;8.934;2023-06-10T02:59:23;6.53;;;4.93;;
67595;SDS011;54410;48.694;8.934;2023-06-10T03:01:49;6.47;;;4.78;;
67595;SDS011;54410;48.694;8.934;2023-06-10T03:04:15;6.18;;;5.00;;
67595;SDS011;54410;48.694;8.934;2023-06-10T03:06:41;6.43;;;5.22;;
67595;SDS011;54410;48.694;8.934;2023-06-10T03:09:07;5.60;;;4.55;;
67595;SDS011;54410;48.694;8.934;2023-06-10T03:11:33;6.18;;;5.10;;
67595;SDS011;54410;48.694;8.934;2023-06-10T03:13:58;6.07;;;5.38;;
67595;SDS011;54410;48.694;8.934;2023-06-10T03:16:24;6.30;;;5.07;;
67595;SDS011;54410;48.694;8.934;2023-06-10T03:18:52;6.53;;;5.15;;
67595;SDS011;54410;48.694;8.934;2023-06-10T03:21:18;6.28;;;5.32;;
67595;SDS011;54410;48.694;8.934;2023-06-10T03:23:44;4.57;;;4.18;;
67595;SDS011;54410;48.694;8.934;2023-06-10T03:26:11;5.95;;;5.35;;
67595;SDS011;54410;48.694;8.934;2023-06-10T03:28:39;5.35;;;4.85;;
67595;SDS011;54410;48.694;8.934;2023-06-10T03:31:05;6.30;;;4.82;;
67595;SDS011;54410;48.694;8.934;2023-06-10T03:33:31;7.18;;;5.32;;
67595;SDS011;54410;48.694;8.934;2023-06-10T03:35:57;7.10;;;5.75;;
67595;SDS011;54410;48.694;8.934;2023-06-10T03:38:23;5.40;;;4.90;;
67595;SDS011;54410;48.694;8.934;2023-06-10T03:40:49;6.35;;;5.75;;
67595;SDS011;54410;48.694;8.934;2023-06-10T03:43:15;5.45;;;4.53;;
67595;SDS011;54410;48.694;8.934;2023-06-10T03:45:41;6.97;;;5.20;;
67595;SDS011;54410;48.694;8.934;2023-06-10T03:48:07;5.50;;;4.72;;
67595;SDS011;54410;48.694;8.934;2023-06-10T03:50:34;7.07;;;5.70;;
67595;SDS011;54410;48.694;8.934;2023-06-10T03:53:01;5.82;;;4.90;;
67595;SDS011;54410;48.694;8.934;2023-06-10T03:55:27;6.50;;;5.38;;
67595;SDS011;54410;48.694;8.934;2023-06-10T03:57:53;5.40;;;4.63;;
67595;SDS011;54410;48.694;8.934;2023-06-10T04:00:19;6.05;;;5.43;;
67595;SDS011;54410;48.694;8.934;2023-06-10T04:02:46;5.82;;;5.22;;
67595;SDS011;54410;48.694;8.934;2023-06-10T04:05:15;5.80;;;5.15;;
67595;SDS011;54410;48.694;8.934;2023-06-10T04:07:41;5.68;;;4.38;;
67595;SDS011;54410;48.694;8.934;2023-06-10T04:10:07;5.68;;;5.07;;
67595;SDS011;54410;48.694;8.934;2023-06-10T04:12:34;7.18;;;5.05;;
67595;SDS011;54410;48.694;8.934;2023-06-10T04:15:01;5.22;;;4.65;;
67595;SDS011;54410;48.694;8.934;2023-06-10T04:17:27;6.00;;;4.85;;
67595;SDS011;54410;48.694;8.934;2023-06-10T04:19:53;5.07;;;4.47;;
67595;SDS011;54410;48.694;8.934;2023-06-10T04:22:19;4.70;;;4.30;;
67595;SDS011;54410;48.694;8.934;2023-06-10T04:24:45;4.53;;;4.10;;
67595;SDS011;54410;48.694;8.934;2023-06-10T04:27:11;4.93;;;4.43;;
67595;SDS011;54410;48.694;8.934;2023-06-10T04:29:37;4.95;;;4.28;;
67595;SDS011;54410;48.694;8.934;2023-06-10T04:32:02;4.43;;;3.78;;
67595;SDS011;54410;48.694;8.934;2023-06-10T04:34:30;4.15;;;3.75;;
67595;SDS011;54410;48.694;8.934;2023-06-10T04:36:56;3.83;;;3.53;;
67595;SDS011;54410;48.694;8.934;2023-06-10T04:39:21;4.13;;;3.60;;
67595;SDS011;54410;48.694;8.934;2023-06-10T04:41:47;5.10;;;3.88;;
67595;SDS011;54410;48.694;8.934;2023-06-10T04:44:13;3.67;;;3.38;;
67595;SDS011;54410;48.694;8.934;2023-06-10T04:46:38;5.07;;;3.38;;
67595;SDS011;54410;48.694;8.934;2023-06-10T04:49:04;3.88;;;3.58;;
67595;SDS011;54410;48.694;8.934;2023-06-10T04:51:30;3.63;;;3.33;;
67595;SDS011;54410;48.694;8.934;2023-06-10T04:53:57;3.60;;;3.30;;
67595;SDS011;54410;48.694;8.934;2023-06-10T04:56:22;3.35;;;3.05;;
67595;SDS011;54410;48.694;8.934;2023-06-10T04:58:48;3.47;;;3.17;;
67595;SDS011;54410;48.694;8.934;2023-06-10T05:01:14;3.60;;;3.30;;
67595;SDS011;54410;48.694;8.934;2023-06-10T05:03:40;3.05;;;2.72;;
67595;SDS011;54410;48.694;8.934;2023-06-10T05:06:06;4.80;;;3.67;;
67595;SDS011;54410;48.694;8.934;2023-06-10T05:08:31;3.30;;;3.00;;
67595;SDS011;54410;48.694;8.934;2023-06-10T05:10:57;3.25;;;2.95;;
67595;SDS011;54410;48.694;8.934;2023-06-10T05:13:23;3.55;;;3.20;;
67595;SDS011;54410;48.694;8.934;2023-06-10T05:15:48;3.38;;;3.08;;
67595;SDS011;54410;48.694;8.934;2023-06-10T05:18:14;3.60;;;3.30;;
67595;SDS011;54410;48.694;8.934;2023-06-10T05:20:40;3.67;;;3.38;;
67595;SDS011;54410;48.694;8.934;2023-06-10T05:23:05;3.40;;;3.10;;
67595;SDS011;54410;48.694;8.934;2023-06-10T05:25:32;3.85;;;3.15;;
67595;SDS011;54410;48.694;8.934;2023-06-10T05:27:58;3.42;;;3.13;;
67595;SDS011;54410;48.694;8.934;2023-06-10T05:30:24;4.03;;;3.45;;
67595;SDS011;54410;48.694;8.934;2023-06-10T05:32:51;3.83;;;3.42;;
67595;SDS011;54410;48.694;8.934;2023-06-10T05:35:17;3.58;;;3.15;;
67595;SDS011;54410;48.694;8.934;2023-06-10T05:37:43;3.13;;;2.83;;
67595;SDS011;54410;48.694;8.934;2023-06-10T05:40:10;2.95;;;2.65;;
67595;SDS011;54410;48.694;8.934;2023-06-10T05:42:36;3.97;;;3.28;;
67595;SDS011;54410;48.694;8.934;2023-06-10T05:45:02;3.17;;;2.80;;
67595;SDS011;54410;48.694;8.934;2023-06-10T05:47:28;3.50;;;3.03;;
67595;SDS011;54410;48.694;8.934;2023-06-10T05:49:54;3.20;;;2.90;;
67595;SDS011;54410;48.694;8.934;2023-06-10T05:52:20;3.58;;;2.90;;
67595;SDS011;54410;48.694;8.934;2023-06-10T05:54:45;3.20;;;2.90;;
67595;SDS011;54410;48.694;8.934;2023-06-10T05:57:11;2.78;;;2.58;;
67595;SDS011;54410;48.694;8.934;2023-06-10T05:59:36;3.10;;;2.80;;
67595;SDS011;54410;48.694;8.934;2023-06-10T06:02:02;3.67;;;3.13;;
67595;SDS011;54410;48.694;8.934;2023-06-10T06:04:28;2.70;;;2.50;;
67595;SDS011;54410;48.694;8.934;2023-06-10T06:06:53;2.95;;;2.38;;
67595;SDS011;54410;48.694;8.934;2023-06-10T06:09:19;2.60;;;2.40;;
67595;SDS011;54410;48.694;8.934;2023-06-10T06:11:45;3.03;;;2.47;;
67595;SDS011;54410;48.694;8.934;2023-06-10T06:14:11;2.17;;;1.98;;
67595;SDS011;54410;48.694;8.934;2023-06-10T06:16:37;2.47;;;2.28;;
67595;SDS011;54410;48.694;8.934;2023-06-10T06:19:03;3.00;;;2.70;;
67595;SDS011;54410;48.694;8.934;2023-06-10T06:21:29;2.35;;;2.20;;
67595;SDS011;54410;48.694;8.934;2023-06-10T06:23:54;2.65;;;2.35;;
67595;SDS011;54410;48.694;8.934;2023-06-10T06:26:20;2.58;;;2.05;;
67595;SDS011;54410;48.694;8.934;2023-06-10T06:28:45;3.10;;;2.50;;
67595;SDS011;54410;48.694;8.934;2023-06-10T06:31:11;2.75;;;2.40;;
67595;SDS011;54410;48.694;8.934;2023-06-10T06:33:37;2.42;;;2.22;;
67595;SDS011;54410;48.694;8.934;2023-06-10T06:36:04;2.63;;;2.42;;
67595;SDS011;54410;48.694;8.934;2023-06-10T06:38:30;2.40;;;1.92;;
67595;SDS011;54410;48.694;8.934;2023-06-10T06:40:56;2.25;;;2.03;;
67595;SDS011;54410;48.694;8.934;2023-06-10T06:43:21;2.42;;;2.22;;
67595;SDS011;54410;48.694;8.934;2023-06-10T06:45:47;2.63;;;2.25;;
67595;SDS011;54410;48.694;8.934;2023-06-10T06:48:13;2.75;;;2.55;;
67595;SDS011;54410;48.694;8.934;2023-06-10T06:50:39;2.53;;;2.33;;
67595;SDS011;54410;48.694;8.934;2023-06-10T06:53:06;2.63;;;2.40;;
67595;SDS011;54410;48.694;8.934;2023-06-10T06:55:32;2.38;;;2.17;;
67595;SDS011;54410;48.694;8.934;2023-06-10T06:57:58;2.40;;;2.20;;
67595;SDS011;54410;48.694;8.934;2023-06-10T07:00:27;3.08;;;2.35;;
67595;SDS011;54410;48.694;8.934;2023-06-10T07:02:53;2.80;;;2.60;;
67595;SDS011;54410;48.694;8.934;2023-06-10T07:05:18;2.22;;;2.03;;
67595;SDS011;54410;48.694;8.934;2023-06-10T07:07:45;2.92;;;2.58;;
67595;SDS011;54410;48.694;8.934;2023-06-10T07:10:11;2.33;;;2.13;;
67595;SDS011;54410;48.694;8.934;2023-06-10T07:12:37;2.75;;;2.40;;
67595;SDS011;54410;48.694;8.934;2023-06-10T07:15:03;2.50;;;2.30;;
67595;SDS011;54410;48.694;8.934;2023-06-10T07:17:29;2.33;;;2.13;;
67595;SDS011;54410;48.694;8.934;2023-06-10T07:19:55;2.67;;;2.10;;
67595;SDS011;54410;48.694;8.934;2023-06-10T07:22:22;2.58;;;2.22;;
67595;SDS011;54410;48.694;8.934;2023-06-10T07:24:48;2.47;;;2.28;;
67595;SDS011;54410;48.694;8.934;2023-06-10T07:27:13;2.38;;;2.17;;
67595;SDS011;54410;48.694;8.934;2023-06-10T07:29:39;2.28;;;2.05;;
67595;SDS011;54410;48.694;8.934;2023-06-10T07:32:06;2.55;;;2.30;;
67595;SDS011;54410;48.694;8.934;2023-06-10T07:34:32;2.22;;;2.03;;
67595;SDS011;54410;48.694;8.934;2023-06-10T07:36:58;2.40;;;1.80;;
67595;SDS011;54410;48.694;8.934;2023-06-10T07:39:24;1.70;;;1.60;;
67595;SDS011;54410;48.694;8.934;2023-06-10T07:41:49;1.70;;;1.60;;
67595;SDS011;54410;48.694;8.934;2023-06-10T07:44:18;1.70;;;1.60;;
67595;SDS011;54410;48.694;8.934;2023-06-10T07:46:44;1.90;;;1.80;;
67595;SDS011;54410;48.694;8.934;2023-06-10T07:49:10;1.38;;;1.27;;
67595;SDS011;54410;48.694;8.934;2023-06-10T07:51:36;2.20;;;2.03;;
67595;SDS011;54410;48.694;8.934;2023-06-10T07:54:02;2.20;;;1.67;;
67595;SDS011;54410;48.694;8.934;2023-06-10T07:56:28;1.88;;;1.75;;
67595;SDS011;54410;48.694;8.934;2023-06-10T07:58:57;2.55;;;1.83;;
67595;SDS011;54410;48.694;8.934;2023-06-10T08:01:22;1.70;;;1.60;;
67595;SDS011;54410;48.694;8.934;2023-06-10T08:03:49;1.90;;;1.80;;
67595;SDS011;54410;48.694;8.934;2023-06-10T08:06:15;1.95;;;1.75;;
67595;SDS011;54410;48.694;8.934;2023-06-10T08:08:42;2.47;;;2.10;;
67595;SDS011;54410;48.694;8.934;2023-06-10T08:11:09;2.20;;;2.00;;
67595;SDS011;54410;48.694;8.934;2023-06-10T08:13:36;2.00;;;1.80;;
67595;SDS011;54410;48.694;8.934;2023-06-10T08:16:01;2.22;;;2.03;;
67595;SDS011;54410;48.694;8.934;2023-06-10T08:18:28;2.78;;;2.30;;
67595;SDS011;54410;48.694;8.934;2023-06-10T08:20:53;1.92;;;1.80;;
67595;SDS011;54410;48.694;8.934;2023-06-10T08:23:20;2.25;;;2.05;;
67595;SDS011;54410;48.694;8.934;2023-06-10T08:25:45;2.00;;;1.80;;
67595;SDS011;54410;48.694;8.934;2023-06-10T08:28:11;2.22;;;1.80;;
67595;SDS011;54410;48.694;8.934;2023-06-10T08:30:36;2.50;;;2.00;;
67595;SDS011;54410;48.694;8.934;2023-06-10T08:33:02;2.47;;;1.92;;
67595;SDS011;54410;48.694;8.934;2023-06-10T08:35:28;3.22;;;2.30;;
67595;SDS011;54410;48.694;8.934;2023-06-10T08:37:54;2.38;;;1.90;;
67595;SDS011;54410;48.694;8.934;2023-06-10T08:40:20;2.05;;;1.83;;
67595;SDS011;54410;48.694;8.934;2023-06-10T08:45:19;2.10;;;2.00;;
67595;SDS011;54410;48.694;8.934;2023-06-10T08:47:48;3.83;;;2.13;;
67595;SDS011;54410;48.694;8.934;2023-06-10T08:50:18;2.40;;;2.20;;
67595;SDS011;54410;48.694;8.934;2023-06-10T08:52:44;2.13;;;1.90;;
67595;SDS011;54410;48.694;8.934;2023-06-10T08:55:32;1.85;;;1.70;;
67595;SDS011;54410;48.694;8.934;2023-06-10T08:58:02;2.50;;;1.90;;
67595;SDS011;54410;48.694;8.934;2023-06-10T09:00:28;2.13;;;1.90;;
67595;SDS011;54410;48.694;8.934;2023-06-10T09:02:55;2.65;;;1.85;;
67595;SDS011;54410;48.694;8.934;2023-06-10T09:05:21;2.10;;;1.90;;
67595;SDS011;54410;48.694;8.934;2023-06-10T09:07:48;2.65;;;2.45;;
67595;SDS011;54410;48.694;8.934;2023-06-10T09:10:14;2.08;;;1.88;;
67595;SDS011;54410;48.694;8.934;2023-06-10T09:12:40;1.80;;;1.63;;
67595;SDS011;54410;48.694;8.934;2023-06-10T09:15:06;2.13;;;1.92;;
67595;SDS011;54410;48.694;8.934;2023-06-10T09:17:33;1.90;;;1.80;;
67595;SDS011;54410;48.694;8.934;2023-06-10T09:20:02;1.80;;;1.70;;
67595;SDS011;54410;48.694;8.934;2023-06-10T09:22:28;2.25;;;2.05;;
67595;SDS011;54410;48.694;8.934;2023-06-10T09:25:15;1.90;;;1.70;;
67595;SDS011;54410;48.694;8.934;2023-06-10T09:33:03;2.53;;;1.90;;
67595;SDS011;54410;48.694;8.934;2023-06-10T09:35:34;2.25;;;2.05;;
67595;SDS011;54410;48.694;8.934;2023-06-10T09:38:00;2.03;;;1.80;;
67595;SDS011;54410;48.694;8.934;2023-06-10T09:40:27;1.90;;;1.80;;
67595;SDS011;54410;48.694;8.934;2023-06-10T09:42:54;1.92;;;1.73;;
67595;SDS011;54410;48.694;8.934;2023-06-10T09:45:20;1.77;;;1.67;;
67595;SDS011;54410;48.694;8.934;2023-06-10T09:47:47;1.70;;;1.58;;
67595;SDS011;54410;48.694;8.934;2023-06-10T09:50:13;2.67;;;1.70;;
67595;SDS011;54410;48.694;8.934;2023-06-10T09:52:39;2.47;;;1.70;;
67595;SDS011;54410;48.694;8.934;2023-06-10T09:55:07;2.13;;;1.92;;
67595;SDS011;54410;48.694;8.934;2023-06-10T09:57:34;2.03;;;1.83;;
67595;SDS011;54410;48.694;8.934;2023-06-10T10:00:04;2.10;;;1.90;;
67595;SDS011;54410;48.694;8.934;2023-06-10T10:02:30;1.70;;;1.60;;
67595;SDS011;54410;48.694;8.934;2023-06-10T10:05:03;2.47;;;2.28;;
67595;SDS011;54410;48.694;8.934;2023-06-10T10:07:33;2.63;;;2.42;;
67595;SDS011;54410;48.694;8.934;2023-06-10T10:09:59;2.08;;;1.88;;
67595;SDS011;54410;48.694;8.934;2023-06-10T10:12:25;1.75;;;1.65;;
67595;SDS011;54410;48.694;8.934;2023-06-10T10:14:51;2.05;;;1.85;;
67595;SDS011;54410;48.694;8.934;2023-06-10T10:17:18;2.35;;;2.15;;
67595;SDS011;54410;48.694;8.934;2023-06-10T10:19:46;1.92;;;1.83;;
67595;SDS011;54410;48.694;8.934;2023-06-10T10:22:25;2.55;;;2.35;;
67595;SDS011;54410;48.694;8.934;2023-06-10T10:24:59;2.25;;;2.05;;
67595;SDS011;54410;48.694;8.934;2023-06-10T10:28:00;1.95;;;1.85;;
67595;SDS011;54410;48.694;8.934;2023-06-10T10:30:28;1.95;;;1.80;;
67595;SDS011;54410;48.694;8.934;2023-06-10T10:35:25;2.13;;;1.92;;
67595;SDS011;54410;48.694;8.934;2023-06-10T10:37:52;2.30;;;2.10;;
67595;SDS011;54410;48.694;8.934;2023-06-10T10:40:19;2.20;;;2.08;;
67595;SDS011;54410;48.694;8.934;2023-06-10T10:42:51;2.25;;;2.05;;
67595;SDS011;54410;48.694;8.934;2023-06-10T10:45:17;2.40;;;2.20;;
67595;SDS011;54410;48.694;8.934;2023-06-10T10:47:44;3.47;;;2.08;;
67595;SDS011;54410;48.694;8.934;2023-06-10T10:50:17;2.40;;;2.15;;
67595;SDS011;54410;48.694;8.934;2023-06-10T10:52:51;2.10;;;1.90;;
67595;SDS011;54410;48.694;8.934;2023-06-10T10:55:17;2.97;;;2.22;;
67595;SDS011;54410;48.694;8.934;2023-06-10T10:57:43;2.55;;;2.35;;
67595;SDS011;54410;48.694;8.934;2023-06-10T11:00:10;2.28;;;1.98;;
67595;SDS011;54410;48.694;8.934;2023-06-10T11:02:37;2.60;;;1.83;;
67595;SDS011;54410;48.694;8.934;2023-06-10T11:05:12;2.50;;;2.30;;
67595;SDS011;54410;48.694;8.934;2023-06-10T11:07:38;2.90;;;2.22;;
67595;SDS011;54410;48.694;8.934;2023-06-10T11:10:08;2.08;;;1.98;;
67595;SDS011;54410;48.694;8.934;2023-06-10T11:12:53;2.20;;;2.00;;
67595;SDS011;54410;48.694;8.934;2023-06-10T11:15:20;2.25;;;2.05;;
67595;SDS011;54410;48.694;8.934;2023-06-10T11:18:08;2.15;;;1.90;;
67595;SDS011;54410;48.694;8.934;2023-06-10T11:28:37;2.63;;;2.22;;
67595;SDS011;54410;48.694;8.934;2023-06-10T11:31:03;2.17;;;2.03;;
67595;SDS011;54410;48.694;8.934;2023-06-10T11:33:29;2.50;;;2.20;;
67595;SDS011;54410;48.694;8.934;2023-06-10T11:35:55;2.50;;;2.15;;
67595;SDS011;54410;48.694;8.934;2023-06-10T11:38:23;2.20;;;2.00;;
67595;SDS011;54410;48.694;8.934;2023-06-10T11:40:49;2.85;;;2.60;;
67595;SDS011;54410;48.694;8.934;2023-06-10T11:43:16;2.40;;;2.20;;
67595;SDS011;54410;48.694;8.934;2023-06-10T11:45:43;2.70;;;2.50;;
67595;SDS011;54410;48.694;8.934;2023-06-10T11:48:09;2.45;;;2.25;;
67595;SDS011;54410;48.694;8.934;2023-06-10T11:50:36;2.35;;;2.15;;
67595;SDS011;54410;48.694;8.934;2023-06-10T11:53:02;2.70;;;2.10;;
67595;SDS011;54410;48.694;8.934;2023-06-10T11:58:13;2.60;;;2.40;;
67595;SDS011;54410;48.694;8.934;2023-06-10T12:03:14;2.08;;;1.88;;
67595;SDS011;54410;48.694;8.934;2023-06-10T12:05:40;2.40;;;2.20;;
67595;SDS011;54410;48.694;8.934;2023-06-10T12:08:09;2.55;;;2.35;;
67595;SDS011;54410;48.694;8.934;2023-06-10T12:10:42;3.10;;;2.88;;
67595;SDS011;54410;48.694;8.934;2023-06-10T12:13:08;2.50;;;2.30;;
67595;SDS011;54410;48.694;8.934;2023-06-10T12:15:34;3.25;;;2.38;;
67595;SDS011;54410;48.694;8.934;2023-06-10T12:18:01;2.10;;;1.90;;
67595;SDS011;54410;48.694;8.934;2023-06-10T12:20:28;2.97;;;2.67;;
67595;SDS011;54410;48.694;8.934;2023-06-10T12:22:54;2.67;;;2.38;;
67595;SDS011;54410;48.694;8.934;2023-06-10T12:25:28;2.58;;;2.35;;
67595;SDS011;54410;48.694;8.934;2023-06-10T12:27:54;2.53;;;2.28;;
67595;SDS011;54410;48.694;8.934;2023-06-10T12:30:21;2.85;;;2.33;;
67595;SDS011;54410;48.694;8.934;2023-06-10T12:32:47;2.90;;;2.42;;
67595;SDS011;54410;48.694;8.934;2023-06-10T12:35:17;3.17;;;2.67;;
67595;SDS011;54410;48.694;8.934;2023-06-10T12:37:54;2.50;;;2.30;;
67595;SDS011;54410;48.694;8.934;2023-06-10T12:40:27;3.95;;;2.75;;
67595;SDS011;54410;48.694;8.934;2023-06-10T12:42:54;2.35;;;2.15;;
67595;SDS011;54410;48.694;8.934;2023-06-10T12:45:28;2.50;;;2.30;;
67595;SDS011;54410;48.694;8.934;2023-06-10T12:48:43;2.30;;;2.10;;
67595;SDS011;54410;48.694;8.934;2023-06-10T12:53:18;2.40;;;2.20;;
67595;SDS011;54410;48.694;8.934;2023-06-10T12:55:45;2.47;;;2.28;;
67595;SDS011;54410;48.694;8.934;2023-06-10T12:58:11;2.20;;;2.00;;
67595;SDS011;54410;48.694;8.934;2023-06-10T13:00:38;2.08;;;1.85;;
67595;SDS011;54410;48.694;8.934;2023-06-10T13:03:04;2.10;;;1.90;;
67595;SDS011;54410;48.694;8.934;2023-06-10T13:05:33;2.30;;;2.10;;
67595;SDS011;54410;48.694;8.934;2023-06-10T13:08:00;2.42;;;2.22;;
67595;SDS011;54410;48.694;8.934;2023-06-10T13:10:26;2.45;;;2.25;;
67595;SDS011;54410;48.694;8.934;2023-06-10T13:12:52;2.47;;;2.15;;
67595;SDS011;54410;48.694;8.934;2023-06-10T13:15:19;2.58;;;2.30;;
67595;SDS011;54410;48.694;8.934;2023-06-10T13:17:45;2.55;;;2.35;;
67595;SDS011;54410;48.694;8.934;2023-06-10T13:20:14;2.53;;;2.33;;
67595;SDS011;54410;48.694;8.934;2023-06-10T13:22:41;2.65;;;2.40;;
67595;SDS011;54410;48.694;8.934;2023-06-10T13:25:07;2.42;;;2.20;;
67595;SDS011;54410;48.694;8.934;2023-06-10T13:27:36;2.80;;;2.58;;
67595;SDS011;54410;48.694;8.934;2023-06-10T13:30:07;2.67;;;2.47;;
67595;SDS011;54410;48.694;8.934;2023-06-10T13:32:33;2.42;;;2.22;;
67595;SDS011;54410;48.694;8.934;2023-06-10T13:35:00;2.28;;;2.05;;
67595;SDS011;54410;48.694;8.934;2023-06-10T13:37:26;2.22;;;2.03;;
67595;SDS011;54410;48.694;8.934;2023-06-10T13:39:52;2.38;;;2.17;;
67595;SDS011;54410;48.694;8.934;2023-06-10T13:42:18;2.28;;;2.08;;
67595;SDS011;54410;48.694;8.934;2023-06-10T13:44:44;2.20;;;2.00;;
67595;SDS011;54410;48.694;8.934;2023-06-10T13:47:10;2.38;;;2.17;;
67595;SDS011;54410;48.694;8.934;2023-06-10T13:49:36;3.13;;;2.30;;
67595;SDS011;54410;48.694;8.934;2023-06-10T13:52:02;2.20;;;2.03;;
67595;SDS011;54410;48.694;8.934;2023-06-10T13:54:28;2.53;;;2.30;;
67595;SDS011;54410;48.694;8.934;2023-06-10T13:56:54;2.25;;;2.05;;
67595;SDS011;54410;48.694;8.934;2023-06-10T13:59:20;2.38;;;2.17;;
67595;SDS011;54410;48.694;8.934;2023-06-10T14:01:47;2.40;;;2.00;;
67595;SDS011;54410;48.694;8.934;2023-06-10T14:04:13;2.40;;;2.20;;
67595;SDS011;54410;48.694;8.934;2023-06-10T14:06:39;2.38;;;2.10;;
67595;SDS011;54410;48.694;8.934;2023-06-10T14:09:05;2.05;;;1.85;;
67595;SDS011;54410;48.694;8.934;2023-06-10T14:11:31;2.50;;;2.05;;
67595;SDS011;54410;48.694;8.934;2023-06-10T14:13:57;2.08;;;1.88;;
67595;SDS011;54410;48.694;8.934;2023-06-10T14:16:23;1.90;;;1.80;;
67595;SDS011;54410;48.694;8.934;2023-06-10T14:18:49;1.95;;;1.75;;
67595;SDS011;54410;48.694;8.934;2023-06-10T14:21:16;2.13;;;1.80;;
67595;SDS011;54410;48.694;8.934;2023-06-10T14:23:42;2.08;;;1.98;;
67595;SDS011;54410;48.694;8.934;2023-06-10T14:26:11;2.88;;;1.98;;
67595;SDS011;54410;48.694;8.934;2023-06-10T14:28:37;2.25;;;2.05;;
67595;SDS011;54410;48.694;8.934;2023-06-10T14:31:03;2.15;;;1.83;;
67595;SDS011;54410;48.694;8.934;2023-06-10T14:33:28;2.13;;;1.92;;
67595;SDS011;54410;48.694;8.934;2023-06-10T14:35:56;2.67;;;1.90;;
67595;SDS011;54410;48.694;8.934;2023-06-10T14:38:22;2.15;;;1.95;;
67595;SDS011;54410;48.694;8.934;2023-06-10T14:40:48;2.20;;;1.92;;
67595;SDS011;54410;48.694;8.934;2023-06-10T14:43:14;2.40;;;2.20;;
67595;SDS011;54410;48.694;8.934;2023-06-10T14:45:40;2.30;;;2.08;;
67595;SDS011;54410;48.694;8.934;2023-06-10T14:48:06;1.85;;;1.75;;
67595;SDS011;54410;48.694;8.934;2023-06-10T14:50:32;2.15;;;1.83;;
67595;SDS011;54410;48.694;8.934;2023-06-10T14:52:58;1.95;;;1.80;;
67595;SDS011;54410;48.694;8.934;2023-06-10T14:55:24;2.05;;;1.80;;
67595;SDS011;54410;48.694;8.934;2023-06-10T14:57:50;2.00;;;1.80;;
67595;SDS011;54410;48.694;8.934;2023-06-10T15:00:16;2.10;;;1.90;;
67595;SDS011;54410;48.694;8.934;2023-06-10T15:02:45;2.03;;;1.83;;
67595;SDS011;54410;48.694;8.934;2023-06-10T15:05:13;2.33;;;2.08;;
67595;SDS011;54410;48.694;8.934;2023-06-10T15:07:40;2.17;;;1.98;;
67595;SDS011;54410;48.694;8.934;2023-06-10T15:10:06;2.42;;;2.08;;
67595;SDS011;54410;48.694;8.934;2023-06-10T15:12:32;2.08;;;1.88;;
67595;SDS011;54410;48.694;8.934;2023-06-10T15:14:58;1.70;;;1.60;;